Time;durP1;ratioP1;P1;durP2;ratioP2;P2;SDS_P1;SDS_P2;PMS_P1;PMS_P2;Temp;Humidity;BMP_temperature;BMP_pressure;BME280_temperature;BME280_humidity;BME280_pressure;Samples;Min_cycle;Max_cycle;Signal;HPM_P1;HPM_P2
2022/09/23 00:00:42;;;;;;;9.20;7.25;;;12.00;91.40;;;;;;5040318;28;20036;-35
2022/09/23 00:03:08;;;;;;;9.18;6.03;;;12.00;91.50;;;;;;5043598;28;20053;-33
2022/09/23 00:05:34;;;;;;;10.10;7.03;;;12.00;91.60;;;;;;5034290;28;20098;-35
2022/09/23 00:08:01;;;;;;;8.45;5.78;;;12.00;91.60;;;;;;5037953;28;20136;-35
2022/09/23 00:10:30;;;;;;;8.25;6.63;;;11.90;91.60;;;;;;5038260;28;20041;-35
2022/09/23 00:12:56;;;;;;;8.20;6.25;;;12.00;91.60;;;;;;5044407;28;20051;-35
2022/09/23 00:15:24;;;;;;;10.55;6.82;;;11.90;91.60;;;;;;5040069;28;20106;-35
2022/09/23 00:17:50;;;;;;;9.20;6.82;;;11.90;91.60;;;;;;5037582;28;20056;-35
2022/09/23 00:20:16;;;;;;;8.63;6.53;;;11.80;91.60;;;;;;5041692;28;20038;-36
2022/09/23 00:22:43;;;;;;;8.60;6.68;;;11.80;91.70;;;;;;5041023;28;20127;-34
2022/09/23 00:25:10;;;;;;;8.15;5.60;;;11.80;91.80;;;;;;5045795;28;20079;-35
2022/09/23 00:27:37;;;;;;;11.55;6.65;;;11.80;92.10;;;;;;5042808;28;20125;-34
2022/09/23 00:30:05;;;;;;;8.85;6.50;;;11.80;92.10;;;;;;5042535;28;20052;-35
2022/09/23 00:32:32;;;;;;;10.00;6.95;;;11.80;92.10;;;;;;5043485;28;20049;-34
2022/09/23 00:34:57;;;;;;;13.05;7.13;;;11.80;92.10;;;;;;5033446;28;20813;-35
2022/09/23 00:37:23;;;;;;;9.45;6.53;;;11.70;92.20;;;;;;5040184;28;20037;-35
2022/09/23 00:39:49;;;;;;;8.63;6.38;;;11.70;92.30;;;;;;5036625;28;20083;-36
2022/09/23 00:42:19;;;;;;;9.07;6.38;;;11.70;92.40;;;;;;5041369;28;20045;-35
2022/09/23 00:44:52;;;;;;;12.15;6.90;;;11.70;92.60;;;;;;5038066;28;20499;-35
2022/09/23 00:47:20;;;;;;;9.57;6.82;;;11.70;92.50;;;;;;5042282;28;20049;-34
2022/09/23 00:49:51;;;;;;;11.70;7.10;;;11.70;92.60;;;;;;5036241;28;20130;-35
2022/09/23 00:52:19;;;;;;;8.52;6.45;;;11.70;92.70;;;;;;5037867;28;20115;-36
2022/09/23 00:54:46;;;;;;;10.60;6.47;;;11.70;92.90;;;;;;5032935;28;20048;-34
2022/09/23 00:57:16;;;;;;;9.70;6.32;;;11.70;93.00;;;;;;5035860;28;20556;-36
2022/09/23 00:59:43;;;;;;;11.48;6.90;;;11.60;93.20;;;;;;5042290;28;20111;-36
2022/09/23 01:02:11;;;;;;;10.00;6.45;;;11.70;93.60;;;;;;5035045;28;20128;-35
2022/09/23 01:04:38;;;;;;;14.27;7.28;;;11.60;93.20;;;;;;5039398;28;20107;-35
2022/09/23 01:07:03;;;;;;;11.35;6.93;;;11.60;93.40;;;;;;5037313;28;20045;-35
2022/09/23 01:09:29;;;;;;;11.02;7.38;;;11.60;93.40;;;;;;5039699;28;20052;-35
2022/09/23 01:12:21;;;;;;;9.60;6.53;;;11.60;93.30;;;;;;5017014;28;20041;-35
2022/09/23 01:15:13;;;;;;;8.93;6.55;;;11.50;93.50;;;;;;5034954;28;20516;-36
2022/09/23 01:18:07;;;;;;;10.13;7.45;;;11.50;93.60;;;;;;5041629;28;20521;-34
2022/09/23 01:20:58;;;;;;;8.45;6.53;;;11.50;93.50;;;;;;5036002;28;22595;-35
2022/09/23 01:23:36;;;;;;;11.23;7.00;;;11.50;93.70;;;;;;5033229;28;20057;-34
2022/09/23 01:26:30;;;;;;;9.30;7.32;;;11.50;93.70;;;;;;5035587;28;20495;-37
2022/09/23 01:29:07;;;;;;;9.32;6.57;;;11.50;93.70;;;;;;5037421;28;20049;-34
2022/09/23 01:31:57;;;;;;;10.02;7.00;;;11.40;93.60;;;;;;5039498;28;20116;-34
2022/09/23 01:35:01;;;;;;;11.52;6.75;;;11.40;93.90;;;;;;5036286;28;20045;-36
2022/09/23 01:37:56;;;;;;;9.93;7.18;;;11.40;94.10;;;;;;5036204;28;20457;-35
2022/09/23 01:40:32;;;;;;;8.00;6.40;;;11.40;94.10;;;;;;5031607;28;20596;-35
2022/09/23 01:43:14;;;;;;;11.52;7.72;;;11.40;94.10;;;;;;5043857;28;20045;-36
2022/09/23 01:45:46;;;;;;;8.85;5.80;;;11.30;94.30;;;;;;5035587;28;20387;-35
2022/09/23 01:48:35;;;;;;;9.20;5.68;;;11.30;94.40;;;;;;5039778;28;20037;-35
2022/09/23 01:51:10;;;;;;;10.63;6.68;;;11.20;94.50;;;;;;5035664;28;20049;-35
2022/09/23 01:53:52;;;;;;;10.18;6.35;;;11.20;94.50;;;;;;5033402;28;20104;-36
2022/09/23 01:56:33;;;;;;;9.13;6.05;;;11.10;94.70;;;;;;5036049;28;20478;-38
2022/09/23 01:59:08;;;;;;;11.35;7.22;;;11.10;94.70;;;;;;5033692;28;20049;-36
2022/09/23 02:01:45;;;;;;;11.45;7.28;;;11.10;94.70;;;;;;5037214;28;20102;-35
2022/09/23 02:04:38;;;;;;;9.18;6.78;;;11.00;94.60;;;;;;5046097;28;20021;-39
2022/09/23 02:07:24;;;;;;;10.45;6.78;;;11.00;94.80;;;;;;5030433;28;20116;-34
2022/09/23 02:10:12;;;;;;;11.57;7.55;;;11.00;94.90;;;;;;5026839;28;20513;-36
2022/09/23 02:12:41;;;;;;;9.18;6.70;;;10.90;95.00;;;;;;5035436;28;20512;-36
2022/09/23 02:15:15;;;;;;;10.23;6.32;;;10.90;94.90;;;;;;5044246;28;20119;-36
2022/09/23 02:17:52;;;;;;;9.50;7.03;;;10.90;95.00;;;;;;5033754;28;20049;-34
2022/09/23 02:20:29;;;;;;;10.50;7.15;;;10.80;95.10;;;;;;5041036;28;20053;-35
2022/09/23 02:23:06;;;;;;;10.88;7.82;;;10.80;95.20;;;;;;5035752;28;20414;-37
2022/09/23 02:25:44;;;;;;;8.77;6.43;;;10.80;95.20;;;;;;5039889;28;20487;-36
2022/09/23 02:28:24;;;;;;;10.32;6.88;;;10.80;95.40;;;;;;5037250;28;20129;-37
2022/09/23 02:31:20;;;;;;;10.15;7.30;;;10.80;95.50;;;;;;5032715;28;20125;-36
2022/09/23 02:33:55;;;;;;;10.65;7.32;;;10.70;95.70;;;;;;5038671;28;20079;-36
2022/09/23 02:36:25;;;;;;;8.90;6.47;;;10.70;95.70;;;;;;5030864;28;20038;-36
2022/09/23 02:38:57;;;;;;;9.60;6.70;;;10.70;95.80;;;;;;5017572;28;20582;-36
2022/09/23 02:41:43;;;;;;;9.93;6.82;;;10.70;95.90;;;;;;5040720;28;20069;-35
2022/09/23 02:44:13;;;;;;;10.02;6.78;;;10.60;96.00;;;;;;5036164;28;20041;-37
2022/09/23 02:46:42;;;;;;;9.13;6.45;;;10.60;96.00;;;;;;5033391;28;20034;-36
2022/09/23 02:49:25;;;;;;;8.82;6.88;;;10.60;96.10;;;;;;5037041;28;20049;-36
2022/09/23 02:51:51;;;;;;;7.65;5.03;;;10.60;96.20;;;;;;5034953;28;20050;-36
2022/09/23 02:54:26;;;;;;;10.00;6.85;;;10.50;96.20;;;;;;5034238;28;20411;-36
2022/09/23 02:56:52;;;;;;;9.27;6.53;;;10.50;96.30;;;;;;5034257;28;20037;-35
2022/09/23 02:59:21;;;;;;;8.93;7.20;;;10.50;96.30;;;;;;5040133;28;20051;-35
2022/09/23 03:01:51;;;;;;;11.15;7.15;;;10.40;96.30;;;;;;5038562;28;20048;-38
2022/09/23 03:04:28;;;;;;;8.98;6.28;;;10.40;96.30;;;;;;5028872;28;20045;-37
2022/09/23 03:07:13;;;;;;;9.95;7.32;;;10.50;96.40;;;;;;5030512;28;20041;-37
2022/09/23 03:09:57;;;;;;;9.63;7.07;;;10.40;96.40;;;;;;5036066;28;20132;-37
2022/09/23 03:12:37;;;;;;;9.75;7.32;;;10.40;96.30;;;;;;5037918;28;20041;-37
2022/09/23 03:15:25;;;;;;;9.05;6.75;;;10.40;96.30;;;;;;5038269;28;20537;-37
2022/09/23 03:18:19;;;;;;;8.32;5.78;;;10.40;96.50;;;;;;5037916;28;20151;-38
2022/09/23 03:21:00;;;;;;;9.18;6.75;;;10.30;96.60;;;;;;5030894;28;20049;-36
2022/09/23 03:23:34;;;;;;;9.63;6.82;;;10.30;96.40;;;;;;5040799;28;20092;-38
2022/09/23 03:26:05;;;;;;;10.07;7.07;;;10.30;96.50;;;;;;5038681;28;20404;-37
2022/09/23 03:28:35;;;;;;;8.82;7.03;;;10.30;96.60;;;;;;5020824;28;20045;-36
2022/09/23 03:31:02;;;;;;;9.77;7.05;;;10.30;96.60;;;;;;5033818;28;20048;-37
2022/09/23 03:33:29;;;;;;;11.02;7.68;;;10.20;97.00;;;;;;5029455;28;20180;-35
2022/09/23 03:38:53;;;;;;;10.88;7.38;;;10.20;96.80;;;;;;5030789;28;20111;-36
2022/09/23 03:41:28;;;;;;;9.65;7.53;;;10.20;96.80;;;;;;5029788;28;20041;-36
2022/09/23 03:43:57;;;;;;;9.95;7.70;;;10.20;96.90;;;;;;5029255;28;20108;-36
2022/09/23 03:46:29;;;;;;;11.60;6.90;;;10.10;97.30;;;;;;5032259;28;20043;-38
2022/09/23 03:49:16;;;;;;;11.50;8.13;;;10.10;97.00;;;;;;5020211;28;20112;-35
2022/09/23 03:51:42;;;;;;;12.70;7.65;;;10.10;97.20;;;;;;5031716;28;20502;-37
2022/09/23 03:54:08;;;;;;;11.43;7.30;;;10.00;97.00;;;;;;5032657;28;20053;-38
2022/09/23 03:56:34;;;;;;;8.63;6.75;;;10.00;97.20;;;;;;5040316;28;20041;-36
2022/09/23 03:59:00;;;;;;;10.07;7.88;;;10.00;97.20;;;;;;5030444;28;20042;-36
2022/09/23 04:01:26;;;;;;;11.00;7.72;;;10.00;97.30;;;;;;5036226;28;20088;-37
2022/09/23 04:03:52;;;;;;;11.82;7.72;;;10.00;97.50;;;;;;5036181;28;20038;-37
2022/09/23 04:06:18;;;;;;;12.18;8.15;;;10.00;97.50;;;;;;5037316;28;20038;-36
2022/09/23 04:08:44;;;;;;;10.00;7.45;;;10.00;97.50;;;;;;5034232;28;20477;-37
2022/09/23 04:11:10;;;;;;;11.10;8.10;;;10.00;97.50;;;;;;5033385;28;20301;-37
2022/09/23 04:13:35;;;;;;;10.50;7.82;;;10.00;97.50;;;;;;5027951;28;20037;-37
2022/09/23 04:16:01;;;;;;;10.57;7.30;;;9.90;97.60;;;;;;5029988;28;20040;-38
2022/09/23 04:18:27;;;;;;;10.23;6.97;;;9.90;97.70;;;;;;5035613;28;20498;-37
2022/09/23 04:20:59;;;;;;;11.07;7.43;;;9.90;97.70;;;;;;5035293;28;20064;-36
2022/09/23 04:23:25;;;;;;;;;;;9.90;97.80;;;;;;5019658;28;20522;-36
2022/09/23 04:25:52;;;;;;;8.27;6.10;;;9.90;98.40;;;;;;5030110;28;20025;-37
2022/09/23 04:28:18;;;;;;;10.30;7.45;;;9.90;97.70;;;;;;5032917;28;20108;-36
2022/09/23 04:30:45;;;;;;;10.35;6.50;;;9.90;97.80;;;;;;5034347;28;20138;-36
2022/09/23 04:33:11;;;;;;;10.77;7.38;;;9.90;97.80;;;;;;5030568;28;20045;-38
2022/09/23 04:35:38;;;;;;;11.60;7.60;;;9.90;98.00;;;;;;5028905;28;20391;-37
2022/09/23 04:38:05;;;;;;;10.43;7.25;;;9.90;98.00;;;;;;5031257;28;20685;-37
2022/09/23 04:40:31;;;;;;;11.77;7.15;;;9.90;98.10;;;;;;5034389;28;20075;-37
2022/09/23 04:42:57;;;;;;;10.68;7.60;;;9.80;98.10;;;;;;5028169;28;20124;-36
2022/09/23 04:45:22;;;;;;;12.13;7.13;;;9.80;98.20;;;;;;5032442;28;20108;-37
2022/09/23 04:47:48;;;;;;;10.30;7.97;;;9.80;98.30;;;;;;5038491;28;20037;-36
2022/09/23 04:50:14;;;;;;;10.38;7.40;;;9.70;98.40;;;;;;5036027;28;20407;-36
2022/09/23 04:52:40;;;;;;;9.23;6.18;;;9.70;98.50;;;;;;5033342;28;21705;-36
2022/09/23 04:55:06;;;;;;;11.20;7.63;;;9.70;98.60;;;;;;5034995;28;20034;-36
2022/09/23 04:57:33;;;;;;;9.35;6.80;;;9.70;98.60;;;;;;5043154;28;20551;-37
2022/09/23 04:59:59;;;;;;;9.85;7.40;;;9.70;98.60;;;;;;5035980;28;20049;-38
2022/09/23 05:02:27;;;;;;;12.00;7.68;;;9.60;98.70;;;;;;5036208;28;20083;-36
2022/09/23 05:04:53;;;;;;;11.60;7.90;;;9.60;98.70;;;;;;5041549;28;20052;-37
2022/09/23 05:07:18;;;;;;;10.00;7.63;;;9.60;98.70;;;;;;5036511;28;20041;-36
2022/09/23 05:09:44;;;;;;;10.98;7.80;;;9.60;98.80;;;;;;5037997;28;20458;-36
2022/09/23 05:12:11;;;;;;;9.25;7.05;;;9.60;98.90;;;;;;5035416;28;20037;-37
2022/09/23 05:14:39;;;;;;;10.13;7.57;;;9.60;98.90;;;;;;5036485;28;20538;-36
2022/09/23 05:17:05;;;;;;;10.13;7.05;;;9.50;99.10;;;;;;5043378;28;20043;-36
2022/09/23 05:19:31;;;;;;;10.27;7.28;;;9.50;99.10;;;;;;5042983;28;20045;-36
2022/09/23 05:21:56;;;;;;;9.68;6.95;;;9.50;99.20;;;;;;5034831;28;20156;-36
2022/09/23 05:24:23;;;;;;;11.60;7.35;;;9.50;99.30;;;;;;5036428;28;20482;-36
2022/09/23 05:26:50;;;;;;;9.05;6.40;;;9.60;99.30;;;;;;5037559;28;20398;-37
2022/09/23 05:29:16;;;;;;;11.07;8.05;;;9.50;99.40;;;;;;5034689;28;20078;-35
2022/09/23 05:31:42;;;;;;;10.40;7.30;;;9.60;99.60;;;;;;5014043;28;20567;-36
2022/09/23 05:34:08;;;;;;;9.18;7.03;;;9.60;99.60;;;;;;5040249;28;20034;-38
2022/09/23 05:36:35;;;;;;;11.00;7.57;;;9.50;99.50;;;;;;5032454;28;20060;-37
2022/09/23 05:39:01;;;;;;;10.80;7.25;;;9.60;99.60;;;;;;5039290;28;20051;-36
2022/09/23 05:41:27;;;;;;;10.73;7.55;;;9.60;99.70;;;;;;5038839;28;20545;-36
2022/09/23 05:43:54;;;;;;;9.82;7.03;;;9.60;99.60;;;;;;5037047;28;20037;-37
2022/09/23 05:46:29;;;;;;;11.60;6.85;;;9.60;99.60;;;;;;5038254;28;20041;-37
2022/09/23 05:48:56;;;;;;;11.25;7.90;;;9.70;99.70;;;;;;5035089;28;20076;-37
2022/09/23 05:51:24;;;;;;;11.13;7.28;;;9.70;99.60;;;;;;5034054;28;20573;-38
2022/09/23 05:53:51;;;;;;;10.57;7.80;;;9.80;99.80;;;;;;5041232;28;20404;-36
2022/09/23 05:56:19;;;;;;;16.95;9.02;;;9.80;99.70;;;;;;5032638;28;20713;-37
2022/09/23 05:58:48;;;;;;;10.43;7.75;;;9.80;99.60;;;;;;5036645;28;20041;-36
2022/09/23 06:01:17;;;;;;;12.35;7.57;;;9.90;99.60;;;;;;5031273;28;20041;-37
2022/09/23 06:03:47;;;;;;;10.70;7.35;;;9.90;99.70;;;;;;5032132;28;20041;-37
2022/09/23 06:06:14;;;;;;;10.35;7.93;;;10.00;99.70;;;;;;5035360;28;20120;-37
2022/09/23 06:08:40;;;;;;;10.63;7.80;;;10.00;99.50;;;;;;5036664;28;20041;-35
2022/09/23 06:11:07;;;;;;;11.02;7.85;;;10.00;99.30;;;;;;5040052;28;20041;-38
2022/09/23 06:13:37;;;;;;;9.90;7.43;;;10.00;99.30;;;;;;5034102;28;21009;-36
2022/09/23 06:16:07;;;;;;;10.32;7.70;;;10.10;99.60;;;;;;5032444;28;20113;-35
2022/09/23 06:18:34;;;;;;;11.02;8.25;;;10.10;99.50;;;;;;5036056;28;20041;-36
2022/09/23 06:21:01;;;;;;;8.98;7.22;;;10.10;99.60;;;;;;5037584;28;20094;-36
2022/09/23 06:23:27;;;;;;;11.88;7.90;;;10.10;99.60;;;;;;5034275;28;20049;-35
2022/09/23 06:25:53;;;;;;;10.25;7.00;;;10.10;99.50;;;;;;5037534;28;20463;-37
2022/09/23 06:28:19;;;;;;;10.35;7.00;;;10.10;99.70;;;;;;5032273;28;20041;-37
2022/09/23 06:30:44;;;;;;;10.70;7.55;;;10.20;99.60;;;;;;5037033;28;20175;-36
2022/09/23 06:33:10;;;;;;;12.52;8.25;;;10.20;99.70;;;;;;5032488;28;20051;-34
2022/09/23 06:35:36;;;;;;;11.82;8.27;;;10.20;99.80;;;;;;5036625;28;20045;-35
2022/09/23 06:38:03;;;;;;;10.18;7.38;;;10.30;99.70;;;;;;5023720;28;20068;-36
2022/09/23 06:40:30;;;;;;;9.77;7.00;;;10.30;99.80;;;;;;5033446;28;20040;-35
2022/09/23 06:42:59;;;;;;;9.60;7.18;;;10.30;99.80;;;;;;5031153;28;20041;-39
2022/09/23 06:45:26;;;;;;;7.00;5.57;;;10.30;99.90;;;;;;5035083;28;20045;-35
2022/09/23 06:47:56;;;;;;;11.05;7.00;;;10.40;99.80;;;;;;5033678;28;20064;-36
2022/09/23 06:50:26;;;;;;;12.18;7.22;;;10.40;99.80;;;;;;5039665;28;20041;-37
2022/09/23 06:52:55;;;;;;;13.93;7.43;;;10.50;99.80;;;;;;5032898;28;20033;-35
2022/09/23 06:55:26;;;;;;;11.45;7.95;;;10.50;99.80;;;;;;5033396;28;20124;-36
2022/09/23 06:57:53;;;;;;;11.02;6.78;;;10.50;99.80;;;;;;5030509;28;20117;-35
2022/09/23 07:00:19;;;;;;;11.07;7.15;;;10.60;99.80;;;;;;5041932;28;20128;-36
2022/09/23 07:02:45;;;;;;;9.88;6.05;;;10.60;99.70;;;;;;5038788;28;20045;-37
2022/09/23 07:05:11;;;;;;;10.98;6.72;;;10.60;99.80;;;;;;5034006;28;20107;-34
2022/09/23 07:07:38;;;;;;;11.18;7.05;;;10.70;99.80;;;;;;5033242;28;20475;-36
2022/09/23 07:10:05;;;;;;;9.52;6.43;;;10.70;99.80;;;;;;5033974;28;20041;-37
2022/09/23 07:12:34;;;;;;;11.25;6.53;;;10.80;99.80;;;;;;5029531;28;20045;-35
2022/09/23 07:15:00;;;;;;;12.65;7.32;;;10.80;99.90;;;;;;5035929;28;20037;-51
2022/09/23 07:17:25;;;;;;;8.23;6.75;;;10.90;99.80;;;;;;5035013;28;20037;-35
2022/09/23 07:19:53;;;;;;;10.65;7.18;;;11.00;99.70;;;;;;5030550;28;20077;-34
2022/09/23 07:22:20;;;;;;;11.10;7.43;;;11.10;99.60;;;;;;5034126;28;20120;-34
2022/09/23 07:24:46;;;;;;;12.80;6.90;;;11.10;99.50;;;;;;5027272;28;20088;-34
2022/09/23 07:27:18;;;;;;;9.07;5.85;;;11.20;99.30;;;;;;5030877;28;20072;-35
2022/09/23 07:30:02;;;;;;;10.10;5.85;;;11.30;99.30;;;;;;5031186;28;20056;-34
2022/09/23 07:32:28;;;;;;;9.23;6.43;;;11.30;99.30;;;;;;5038745;28;20375;-34
2022/09/23 07:34:53;;;;;;;13.18;7.60;;;11.40;99.20;;;;;;5040515;28;20044;-35
2022/09/23 07:37:19;;;;;;;8.30;6.40;;;11.50;99.30;;;;;;5033001;28;20068;-36
2022/09/23 07:39:45;;;;;;;9.80;6.80;;;11.50;99.00;;;;;;5020880;28;20055;-34
2022/09/23 07:42:12;;;;;;;12.18;7.32;;;11.60;98.90;;;;;;5034544;28;20410;-34
2022/09/23 07:44:38;;;;;;;12.10;7.10;;;11.60;98.90;;;;;;5031962;28;20033;-34
2022/09/23 07:47:05;;;;;;;11.85;6.07;;;11.70;98.70;;;;;;5033714;28;20063;-34
2022/09/23 07:49:33;;;;;;;11.35;7.57;;;11.70;98.70;;;;;;5033789;28;20067;-35
2022/09/23 07:51:59;;;;;;;8.18;5.93;;;11.80;98.60;;;;;;5029815;28;20406;-35
2022/09/23 07:54:28;;;;;;;9.23;5.65;;;11.80;98.50;;;;;;5032261;28;20029;-35
2022/09/23 07:56:54;;;;;;;10.43;6.28;;;11.90;98.50;;;;;;5027859;28;20051;-35
2022/09/23 07:59:20;;;;;;;11.75;7.20;;;12.00;98.40;;;;;;5037848;28;20041;-35
2022/09/23 08:01:51;;;;;;;10.98;6.72;;;12.10;98.20;;;;;;5036152;28;20045;-35
2022/09/23 08:04:27;;;;;;;9.65;6.75;;;12.10;98.00;;;;;;5036440;28;20491;-33
2022/09/23 08:07:00;;;;;;;8.50;5.93;;;12.20;97.80;;;;;;5032653;28;20048;-35
2022/09/23 08:09:30;;;;;;;9.25;6.20;;;12.30;98.00;;;;;;5030770;28;20045;-35
2022/09/23 08:11:56;;;;;;;11.57;6.93;;;12.30;97.70;;;;;;5030081;28;20044;-35
2022/09/23 08:14:23;;;;;;;8.40;6.15;;;12.40;97.60;;;;;;5038590;28;20033;-34
2022/09/23 08:16:49;;;;;;;9.07;6.35;;;12.40;97.70;;;;;;5029455;28;20103;-36
2022/09/23 08:19:15;;;;;;;13.52;7.03;;;12.50;97.80;;;;;;5028120;28;20040;-35
2022/09/23 08:21:41;;;;;;;8.75;6.60;;;12.60;97.60;;;;;;5035706;28;20495;-35
2022/09/23 08:24:16;;;;;;;13.05;7.45;;;12.70;97.60;;;;;;5037801;28;20063;-35
2022/09/23 08:26:43;;;;;;;8.43;6.05;;;12.70;97.50;;;;;;5040378;28;20037;-35
2022/09/23 08:29:15;;;;;;;12.30;7.05;;;12.80;97.40;;;;;;5033702;28;20684;-35
2022/09/23 08:31:41;;;;;;;13.65;8.00;;;12.90;97.40;;;;;;5036948;28;20099;-35
2022/09/23 08:34:07;;;;;;;11.63;7.28;;;13.00;97.30;;;;;;5036028;28;20047;-34
2022/09/23 08:36:33;;;;;;;8.85;6.63;;;13.10;97.10;;;;;;5036915;28;20030;-35
2022/09/23 08:38:59;;;;;;;8.95;6.43;;;13.20;96.90;;;;;;5039234;28;20507;-35
2022/09/23 08:41:53;;;;;;;8.23;5.95;;;13.20;96.60;;;;;;5033497;28;20120;-35
2022/09/23 08:44:25;;;;;;;10.40;7.20;;;13.30;96.50;;;;;;5035097;28;20041;-37
2022/09/23 08:47:22;;;;;;;11.30;6.63;;;13.40;96.20;;;;;;5040670;28;20187;-34
2022/09/23 08:50:06;;;;;;;8.75;6.38;;;13.60;96.20;;;;;;5021084;28;20140;-35
2022/09/23 08:52:46;;;;;;;8.38;5.72;;;13.70;95.80;;;;;;5041891;28;20541;-36
2022/09/23 08:55:13;;;;;;;10.00;6.40;;;13.80;95.50;;;;;;5035559;28;20045;-35
2022/09/23 08:58:05;;;;;;;9.32;6.63;;;13.90;95.20;;;;;;5032920;28;20044;-36
2022/09/23 09:00:40;;;;;;;9.10;6.43;;;14.00;95.00;;;;;;5032818;28;20532;-36
2022/09/23 09:03:34;;;;;;;9.23;5.78;;;14.10;94.70;;;;;;5040858;28;20106;-36
2022/09/23 09:06:00;;;;;;;9.35;6.35;;;14.30;94.90;;;;;;5037646;28;20107;-38
2022/09/23 09:08:31;;;;;;;8.13;6.00;;;14.50;94.60;;;;;;5034570;28;20357;-36
2022/09/23 09:10:57;;;;;;;10.45;6.38;;;14.60;94.20;;;;;;5035467;28;20087;-37
2022/09/23 09:13:32;;;;;;;8.35;5.93;;;14.80;94.00;;;;;;5031023;28;20077;-36
2022/09/23 09:16:21;;;;;;;9.70;5.85;;;14.90;93.90;;;;;;5031889;28;20099;-36
2022/09/23 09:18:53;;;;;;;9.65;6.53;;;15.00;93.40;;;;;;5038520;28;20037;-37
2022/09/23 09:21:26;;;;;;;10.38;5.72;;;15.00;93.20;;;;;;5036622;28;20037;-36
2022/09/23 09:23:55;;;;;;;10.00;6.03;;;15.00;93.10;;;;;;5027983;28;20061;-37
2022/09/23 09:26:27;;;;;;;8.90;5.50;;;15.10;93.00;;;;;;5038753;28;20123;-37
2022/09/23 09:29:01;;;;;;;8.20;5.17;;;15.00;92.90;;;;;;5034302;28;20095;-37
2022/09/23 09:31:36;;;;;;;8.23;5.47;;;15.00;93.10;;;;;;5038095;28;20299;-35
2022/09/23 09:34:34;;;;;;;12.70;7.03;;;15.00;93.30;;;;;;5020715;28;20060;-37
2022/09/23 09:37:07;;;;;;;7.93;5.38;;;15.00;93.30;;;;;;5028221;28;20053;-36
2022/09/23 09:39:34;;;;;;;7.65;5.55;;;15.00;93.40;;;;;;5039997;28;20048;-38
2022/09/23 09:42:00;;;;;;;9.00;5.53;;;15.00;93.40;;;;;;5033073;28;20056;-37
2022/09/23 09:44:49;;;;;;;7.57;5.10;;;15.00;93.50;;;;;;5036284;28;20045;-36
2022/09/23 09:47:45;;;;;;;8.57;5.57;;;15.00;93.70;;;;;;5029861;28;20502;-36
2022/09/23 09:50:20;;;;;;;7.28;5.00;;;15.10;93.60;;;;;;5029065;28;20479;-35
2022/09/23 09:52:52;;;;;;;12.05;6.38;;;15.10;93.70;;;;;;5033368;28;20518;-35
2022/09/23 09:55:27;;;;;;;6.03;4.90;;;15.20;93.60;;;;;;5034568;28;20065;-36
2022/09/23 09:58:03;;;;;;;8.02;5.20;;;15.20;93.50;;;;;;5043660;28;20057;-36
2022/09/23 10:00:29;;;;;;;9.88;5.60;;;15.30;93.20;;;;;;5041438;28;20121;-36
2022/09/23 10:03:02;;;;;;;11.20;6.13;;;15.30;93.10;;;;;;5039331;28;20467;-36
2022/09/23 10:05:48;;;;;;;7.85;4.95;;;15.30;92.90;;;;;;5038092;28;20044;-35
2022/09/23 10:08:24;;;;;;;6.80;4.78;;;15.30;93.10;;;;;;5023214;28;20045;-36
2022/09/23 10:11:15;;;;;;;7.03;5.00;;;15.30;92.90;;;;;;5039685;28;20049;-36
2022/09/23 10:14:08;;;;;;;9.50;5.40;;;15.40;92.70;;;;;;5041371;28;20487;-36
2022/09/23 10:16:34;;;;;;;7.65;5.63;;;15.50;92.70;;;;;;5028359;28;20068;-36
2022/09/23 10:19:03;;;;;;;8.13;5.03;;;15.60;92.60;;;;;;5032545;28;20041;-36
2022/09/23 10:21:36;;;;;;;12.48;5.60;;;15.70;92.20;;;;;;5031383;28;20083;-37
2022/09/23 10:24:05;;;;;;;8.30;5.20;;;15.80;92.00;;;;;;5031069;28;20400;-35
2022/09/23 10:26:42;;;;;;;8.40;5.32;;;15.80;92.00;;;;;;5045426;28;20045;-35
2022/09/23 10:29:28;;;;;;;8.32;4.97;;;15.90;91.60;;;;;;5033971;28;20052;-34
2022/09/23 10:32:19;;;;;;;8.93;4.85;;;16.00;91.50;;;;;;5035596;28;20041;-34
2022/09/23 10:34:50;;;;;;;5.88;4.35;;;16.10;91.40;;;;;;5035239;28;20131;-35
2022/09/23 10:37:28;;;;;;;7.78;5.25;;;16.10;91.30;;;;;;5031624;28;20578;-33
2022/09/23 10:49:08;;;;;;;8.23;5.40;;;16.20;90.90;;;;;;5035893;28;20048;-36
2022/09/23 10:52:05;;;;;;;8.32;5.13;;;16.10;90.80;;;;;;5027323;28;20041;-36
2022/09/23 10:55:08;;;;;;;7.35;5.22;;;16.10;90.80;;;;;;5033838;28;20504;-36
2022/09/23 10:58:11;;;;;;;7.80;5.30;;;16.20;90.70;;;;;;5031620;28;20057;-36
2022/09/23 11:00:40;;;;;;;6.75;4.50;;;16.20;90.50;;;;;;5037737;28;20051;-36
2022/09/23 11:03:33;;;;;;;7.05;5.05;;;16.20;90.50;;;;;;5036510;28;20149;-37
2022/09/23 11:06:17;;;;;;;6.82;4.32;;;16.20;90.30;;;;;;5044034;28;20067;-37
2022/09/23 11:09:39;;;;;;;10.55;5.20;;;16.20;90.50;;;;;;5038331;28;20053;-36
2022/09/23 11:12:46;;;;;;;7.18;4.70;;;16.10;90.70;;;;;;4982276;28;20058;-36
2022/09/23 11:15:49;;;;;;;6.28;4.65;;;16.10;90.80;;;;;;5032447;28;20394;-34
2022/09/23 11:18:22;;;;;;;7.43;4.70;;;16.10;90.60;;;;;;5030788;28;20107;-33
2022/09/23 11:21:05;;;;;;;8.70;4.93;;;16.10;90.60;;;;;;5037327;28;20480;-34
2022/09/23 11:23:43;;;;;;;7.53;5.07;;;16.10;90.70;;;;;;5027251;28;20514;-34
2022/09/23 11:26:41;;;;;;;6.45;4.78;;;16.10;90.60;;;;;;5039236;28;20211;-34
2022/09/23 11:29:28;;;;;;;5.72;4.00;;;16.10;90.70;;;;;;5022060;28;20060;-34
2022/09/23 11:32:06;;;;;;;7.20;3.90;;;16.20;90.80;;;;;;5036199;28;20056;-34
2022/09/23 11:34:41;;;;;;;6.15;4.10;;;16.20;91.10;;;;;;5033138;28;20041;-34
2022/09/23 11:37:27;;;;;;;6.60;4.90;;;16.20;91.10;;;;;;5041476;28;20095;-34
2022/09/23 11:40:02;;;;;;;7.28;4.97;;;16.20;91.20;;;;;;5032747;28;20049;-33
2022/09/23 11:42:37;;;;;;;8.70;4.40;;;16.20;91.20;;;;;;5045595;28;20091;-35
2022/09/23 11:45:14;;;;;;;6.60;4.05;;;16.30;91.20;;;;;;5036317;28;20090;-34
2022/09/23 11:47:53;;;;;;;8.10;4.90;;;16.30;91.40;;;;;;5034680;28;20503;-33
2022/09/23 11:50:31;;;;;;;7.70;4.88;;;16.30;91.50;;;;;;5033649;28;20053;-34
2022/09/23 11:53:04;;;;;;;10.40;4.43;;;16.30;91.50;;;;;;5037912;28;20041;-34
2022/09/23 11:55:43;;;;;;;6.57;4.30;;;16.30;91.40;;;;;;5020480;28;20053;-35
2022/09/23 11:58:33;;;;;;;7.65;4.22;;;16.30;91.50;;;;;;5035043;28;20034;-34
2022/09/23 12:01:08;;;;;;;7.13;3.53;;;16.30;91.40;;;;;;5020989;28;20453;-36
2022/09/23 12:03:53;;;;;;;7.82;3.47;;;16.30;91.50;;;;;;5035133;28;20041;-35
2022/09/23 12:06:29;;;;;;;8.95;4.30;;;16.30;91.60;;;;;;5031285;28;20042;-36
2022/09/23 12:09:01;;;;;;;9.70;4.35;;;16.30;91.60;;;;;;5042836;28;20045;-36
2022/09/23 12:11:32;;;;;;;6.47;4.25;;;16.30;91.70;;;;;;5029385;28;20041;-34
2022/09/23 12:14:26;;;;;;;5.65;3.78;;;16.30;92.00;;;;;;5044963;28;20097;-33
2022/09/23 12:17:03;;;;;;;7.85;4.22;;;16.30;92.20;;;;;;5035530;28;20403;-35
2022/09/23 12:19:45;;;;;;;10.13;4.60;;;16.30;92.50;;;;;;5032695;28;20042;-36
2022/09/23 12:22:38;;;;;;;5.88;3.70;;;16.30;92.70;;;;;;5027424;28;20447;-37
2022/09/23 12:25:12;;;;;;;7.35;3.47;;;16.30;92.90;;;;;;5041356;28;20478;-38
2022/09/23 12:27:43;;;;;;;5.82;3.83;;;16.30;92.80;;;;;;5030717;28;20045;-35
2022/09/23 12:30:25;;;;;;;5.90;4.55;;;16.30;93.10;;;;;;5029681;28;20042;-36
2022/09/23 12:32:51;;;;;;;7.50;3.70;;;16.30;93.30;;;;;;5040615;28;20120;-36
2022/09/23 12:35:34;;;;;;;7.88;3.53;;;16.30;93.50;;;;;;5038524;28;20734;-36
2022/09/23 12:38:00;;;;;;;;;;;16.40;93.70;;;;;;5042320;28;20427;-36
2022/09/23 12:40:33;;;;;;;7.35;3.30;;;16.40;93.60;;;;;;5024913;28;20371;-35
2022/09/23 12:43:02;;;;;;;5.28;3.00;;;16.40;93.20;;;;;;5039200;28;20049;-34
2022/09/23 12:45:33;;;;;;;6.15;3.58;;;16.40;93.10;;;;;;5029650;28;20061;-34
2022/09/23 12:48:23;;;;;;;5.75;3.40;;;16.50;93.00;;;;;;5034393;28;20045;-36
2022/09/23 12:50:52;;;;;;;5.88;3.30;;;16.40;93.00;;;;;;5035921;28;20084;-40
2022/09/23 12:53:33;;;;;;;6.25;3.83;;;16.50;93.20;;;;;;5033621;28;20509;-36
2022/09/23 12:56:17;;;;;;;6.75;3.50;;;16.60;92.80;;;;;;5041135;28;20038;-37
2022/09/23 12:58:43;;;;;;;7.18;3.70;;;16.60;92.30;;;;;;5029966;28;20478;-33
2022/09/23 13:01:15;;;;;;;8.57;3.15;;;16.60;92.30;;;;;;5033662;28;20132;-33
2022/09/23 13:06:41;;;;;;;7.82;4.18;;;16.60;91.80;;;;;;5035262;28;20129;-34
2022/09/23 13:09:17;;;;;;;7.07;4.93;;;16.70;91.80;;;;;;5043850;28;20369;-33
2022/09/23 13:11:46;;;;;;;7.75;4.68;;;16.70;91.40;;;;;;5043067;28;20049;-35
2022/09/23 13:14:18;;;;;;;5.95;3.50;;;16.60;91.60;;;;;;5033112;28;20048;-34
2022/09/23 13:16:45;;;;;;;7.40;4.30;;;16.70;91.60;;;;;;5035410;28;20072;-34
2022/09/23 13:19:25;;;;;;;4.97;3.60;;;16.70;91.60;;;;;;5037977;28;20045;-34
2022/09/23 13:22:11;;;;;;;8.40;3.58;;;16.70;91.10;;;;;;5037054;28;20041;-34
2022/09/23 13:24:42;;;;;;;8.63;4.40;;;16.70;90.80;;;;;;5034901;28;20099;-33
2022/09/23 13:27:29;;;;;;;8.43;3.33;;;16.70;90.90;;;;;;5032777;28;20033;-34
2022/09/23 13:30:12;;;;;;;6.60;3.95;;;16.70;90.70;;;;;;5016799;28;20134;-35
2022/09/23 13:32:46;;;;;;;4.88;3.55;;;16.80;90.90;;;;;;5036829;28;20049;-39